sensor_id;sensor_type;location;lat;lon;timestamp;temperature;humidity
79467;SHT30;68933;49.726;9.226;2023-04-30T00:01:40;13.2;69
79467;SHT30;68933;49.726;9.226;2023-04-30T00:03:53;13.2;69
79467;SHT30;68933;49.726;9.226;2023-04-30T00:06:06;13.2;69
79467;SHT30;68933;49.726;9.226;2023-04-30T00:08:19;13.2;69
79467;SHT30;68933;49.726;9.226;2023-04-30T00:10:32;13.2;69
79467;SHT30;68933;49.726;9.226;2023-04-30T00:12:45;13.1;69
79467;SHT30;68933;49.726;9.226;2023-04-30T00:14:58;13.1;69
79467;SHT30;68933;49.726;9.226;2023-04-30T00:17:11;13.1;69
79467;SHT30;68933;49.726;9.226;2023-04-30T00:19:24;13.2;69
79467;SHT30;68933;49.726;9.226;2023-04-30T00:21:37;13.2;69
79467;SHT30;68933;49.726;9.226;2023-04-30T00:23:50;13.1;69
79467;SHT30;68933;49.726;9.226;2023-04-30T00:26:03;13.1;69
79467;SHT30;68933;49.726;9.226;2023-04-30T00:28:16;13.1;69
79467;SHT30;68933;49.726;9.226;2023-04-30T00:30:29;13.1;69
79467;SHT30;68933;49.726;9.226;2023-04-30T00:32:43;13.1;69
79467;SHT30;68933;49.726;9.226;2023-04-30T00:34:55;13.1;69
79467;SHT30;68933;49.726;9.226;2023-04-30T00:37:08;13;69
79467;SHT30;68933;49.726;9.226;2023-04-30T00:39:21;13;69
79467;SHT30;68933;49.726;9.226;2023-04-30T00:41:34;13;69
79467;SHT30;68933;49.726;9.226;2023-04-30T00:43:47;13;69
79467;SHT30;68933;49.726;9.226;2023-04-30T00:46:00;13;69
79467;SHT30;68933;49.726;9.226;2023-04-30T00:48:13;13;70
79467;SHT30;68933;49.726;9.226;2023-04-30T00:50:27;13;70
79467;SHT30;68933;49.726;9.226;2023-04-30T00:52:40;13;71
79467;SHT30;68933;49.726;9.226;2023-04-30T00:54:52;13;71
79467;SHT30;68933;49.726;9.226;2023-04-30T00:57:06;12.9;71
79467;SHT30;68933;49.726;9.226;2023-04-30T00:59:18;12.9;71
79467;SHT30;68933;49.726;9.226;2023-04-30T01:01:31;12.9;71
79467;SHT30;68933;49.726;9.226;2023-04-30T01:03:44;12.9;69
79467;SHT30;68933;49.726;9.226;2023-04-30T01:05:57;12.9;69
79467;SHT30;68933;49.726;9.226;2023-04-30T01:08:10;12.9;69
79467;SHT30;68933;49.726;9.226;2023-04-30T01:10:25;12.9;69
79467;SHT30;68933;49.726;9.226;2023-04-30T01:12:38;12.9;71
79467;SHT30;68933;49.726;9.226;2023-04-30T01:14:52;12.9;71
79467;SHT30;68933;49.726;9.226;2023-04-30T01:17:04;12.9;71
79467;SHT30;68933;49.726;9.226;2023-04-30T01:19:19;12.9;71
79467;SHT30;68933;49.726;9.226;2023-04-30T01:21:28;12.9;71
79467;SHT30;68933;49.726;9.226;2023-04-30T01:23:47;12.9;71
79467;SHT30;68933;49.726;9.226;2023-04-30T01:25:59;12.8;71
79467;SHT30;68933;49.726;9.226;2023-04-30T01:28:08;12.8;71
79467;SHT30;68933;49.726;9.226;2023-04-30T01:30:21;12.8;71
79467;SHT30;68933;49.726;9.226;2023-04-30T01:32:33;12.8;71
79467;SHT30;68933;49.726;9.226;2023-04-30T01:34:46;12.8;71
79467;SHT30;68933;49.726;9.226;2023-04-30T01:37:04;12.8;71
79467;SHT30;68933;49.726;9.226;2023-04-30T01:39:15;12.8;71
79467;SHT30;68933;49.726;9.226;2023-04-30T01:41:28;12.8;71
79467;SHT30;68933;49.726;9.226;2023-04-30T01:43:41;12.7;71
79467;SHT30;68933;49.726;9.226;2023-04-30T01:45:55;12.7;71
79467;SHT30;68933;49.726;9.226;2023-04-30T01:48:07;12.7;71
79467;SHT30;68933;49.726;9.226;2023-04-30T01:50:19;12.7;71
79467;SHT30;68933;49.726;9.226;2023-04-30T01:52:31;12.7;71
79467;SHT30;68933;49.726;9.226;2023-04-30T01:54:44;12.6;71
79467;SHT30;68933;49.726;9.226;2023-04-30T01:56:58;12.6;71
79467;SHT30;68933;49.726;9.226;2023-04-30T01:59:09;12.7;71
79467;SHT30;68933;49.726;9.226;2023-04-30T02:01:24;12.7;71
79467;SHT30;68933;49.726;9.226;2023-04-30T02:03:35;12.6;71
79467;SHT30;68933;49.726;9.226;2023-04-30T02:05:49;12.6;71
79467;SHT30;68933;49.726;9.226;2023-04-30T02:08:01;12.6;71
79467;SHT30;68933;49.726;9.226;2023-04-30T02:10:15;12.6;71
79467;SHT30;68933;49.726;9.226;2023-04-30T02:12:27;12.6;71
79467;SHT30;68933;49.726;9.226;2023-04-30T02:14:40;12.6;71
79467;SHT30;68933;49.726;9.226;2023-04-30T02:16:53;12.6;71
79467;SHT30;68933;49.726;9.226;2023-04-30T02:19:06;12.6;71
79467;SHT30;68933;49.726;9.226;2023-04-30T02:21:19;12.6;71
79467;SHT30;68933;49.726;9.226;2023-04-30T02:23:32;12.6;71
79467;SHT30;68933;49.726;9.226;2023-04-30T02:25:45;12.6;71
79467;SHT30;68933;49.726;9.226;2023-04-30T02:27:59;12.6;71
79467;SHT30;68933;49.726;9.226;2023-04-30T02:30:11;12.5;71
79467;SHT30;68933;49.726;9.226;2023-04-30T02:32:24;12.5;71
79467;SHT30;68933;49.726;9.226;2023-04-30T02:34:37;12.5;71
79467;SHT30;68933;49.726;9.226;2023-04-30T02:36:50;12.5;71
79467;SHT30;68933;49.726;9.226;2023-04-30T02:39:03;12.5;71
79467;SHT30;68933;49.726;9.226;2023-04-30T02:41:16;12.5;71
79467;SHT30;68933;49.726;9.226;2023-04-30T02:43:29;12.5;71
79467;SHT30;68933;49.726;9.226;2023-04-30T02:45:42;12.5;71
79467;SHT30;68933;49.726;9.226;2023-04-30T02:47:55;12.5;71
79467;SHT30;68933;49.726;9.226;2023-04-30T02:50:09;12.5;71
79467;SHT30;68933;49.726;9.226;2023-04-30T02:52:21;12.5;71
79467;SHT30;68933;49.726;9.226;2023-04-30T02:54:34;12.5;71
79467;SHT30;68933;49.726;9.226;2023-04-30T02:56:47;12.5;71
79467;SHT30;68933;49.726;9.226;2023-04-30T02:59:00;12.5;71
79467;SHT30;68933;49.726;9.226;2023-04-30T03:01:13;12.4;71
79467;SHT30;68933;49.726;9.226;2023-04-30T03:03:26;12.4;71
79467;SHT30;68933;49.726;9.226;2023-04-30T03:05:39;12.4;72
79467;SHT30;68933;49.726;9.226;2023-04-30T03:07:52;12.4;72
79467;SHT30;68933;49.726;9.226;2023-04-30T03:10:06;12.4;72
79467;SHT30;68933;49.726;9.226;2023-04-30T03:12:18;12.4;72
79467;SHT30;68933;49.726;9.226;2023-04-30T03:14:31;12.4;72
79467;SHT30;68933;49.726;9.226;2023-04-30T03:16:44;12.3;72
79467;SHT30;68933;49.726;9.226;2023-04-30T03:18:57;12.3;72
79467;SHT30;68933;49.726;9.226;2023-04-30T03:21:10;12.3;72
79467;SHT30;68933;49.726;9.226;2023-04-30T03:23:26;12.3;72
79467;SHT30;68933;49.726;9.226;2023-04-30T03:25:36;12.3;72
79467;SHT30;68933;49.726;9.226;2023-04-30T03:27:49;12.3;72
79467;SHT30;68933;49.726;9.226;2023-04-30T03:30:03;12.3;72
79467;SHT30;68933;49.726;9.226;2023-04-30T03:32:15;12.2;72
79467;SHT30;68933;49.726;9.226;2023-04-30T03:34:28;12.2;72
79467;SHT30;68933;49.726;9.226;2023-04-30T03:36:41;12.2;72
79467;SHT30;68933;49.726;9.226;2023-04-30T03:38:54;12.2;72
79467;SHT30;68933;49.726;9.226;2023-04-30T03:41:07;12.2;72
79467;SHT30;68933;49.726;9.226;2023-04-30T03:43:20;12.2;72
79467;SHT30;68933;49.726;9.226;2023-04-30T03:45:33;12.2;72
79467;SHT30;68933;49.726;9.226;2023-04-30T03:47:46;12.2;72
79467;SHT30;68933;49.726;9.226;2023-04-30T03:49:59;12.1;73
79467;SHT30;68933;49.726;9.226;2023-04-30T03:52:12;12.1;73
79467;SHT30;68933;49.726;9.226;2023-04-30T03:54:25;12.1;73
79467;SHT30;68933;49.726;9.226;2023-04-30T03:56:38;12.1;73
79467;SHT30;68933;49.726;9.226;2023-04-30T03:58:51;12.1;73
79467;SHT30;68933;49.726;9.226;2023-04-30T04:01:04;12;73
79467;SHT30;68933;49.726;9.226;2023-04-30T04:03:17;12;73
79467;SHT30;68933;49.726;9.226;2023-04-30T04:05:30;12;73
79467;SHT30;68933;49.726;9.226;2023-04-30T04:07:43;12;73
79467;SHT30;68933;49.726;9.226;2023-04-30T04:09:56;12;73
79467;SHT30;68933;49.726;9.226;2023-04-30T04:12:09;12;73
79467;SHT30;68933;49.726;9.226;2023-04-30T04:14:22;12;73
79467;SHT30;68933;49.726;9.226;2023-04-30T04:16:35;12;73
79467;SHT30;68933;49.726;9.226;2023-04-30T04:18:48;12;73
79467;SHT30;68933;49.726;9.226;2023-04-30T04:21:01;12;73
79467;SHT30;68933;49.726;9.226;2023-04-30T04:23:14;12;73
79467;SHT30;68933;49.726;9.226;2023-04-30T04:25:27;11.9;75
79467;SHT30;68933;49.726;9.226;2023-04-30T04:27:40;11.9;75
79467;SHT30;68933;49.726;9.226;2023-04-30T04:29:53;11.9;75
79467;SHT30;68933;49.726;9.226;2023-04-30T04:32:06;11.9;73
79467;SHT30;68933;49.726;9.226;2023-04-30T04:34:19;11.9;73
79467;SHT30;68933;49.726;9.226;2023-04-30T04:36:32;11.9;73
79467;SHT30;68933;49.726;9.226;2023-04-30T04:38:45;11.9;73
79467;SHT30;68933;49.726;9.226;2023-04-30T04:40:58;11.9;73
79467;SHT30;68933;49.726;9.226;2023-04-30T04:43:11;11.9;75
79467;SHT30;68933;49.726;9.226;2023-04-30T04:45:24;11.9;75
79467;SHT30;68933;49.726;9.226;2023-04-30T04:47:37;11.9;75
79467;SHT30;68933;49.726;9.226;2023-04-30T04:49:50;11.9;75
79467;SHT30;68933;49.726;9.226;2023-04-30T04:52:03;11.9;75
79467;SHT30;68933;49.726;9.226;2023-04-30T04:54:16;11.9;75
79467;SHT30;68933;49.726;9.226;2023-04-30T04:56:29;11.9;75
79467;SHT30;68933;49.726;9.226;2023-04-30T04:58:43;11.8;75
79467;SHT30;68933;49.726;9.226;2023-04-30T05:00:55;11.8;75
79467;SHT30;68933;49.726;9.226;2023-04-30T05:03:08;11.8;75
79467;SHT30;68933;49.726;9.226;2023-04-30T05:05:21;11.8;75
79467;SHT30;68933;49.726;9.226;2023-04-30T05:07:34;11.8;75
79467;SHT30;68933;49.726;9.226;2023-04-30T05:09:47;11.8;75
79467;SHT30;68933;49.726;9.226;2023-04-30T05:12:00;11.8;75
79467;SHT30;68933;49.726;9.226;2023-04-30T05:14:13;11.8;75
79467;SHT30;68933;49.726;9.226;2023-04-30T05:16:26;11.8;75
79467;SHT30;68933;49.726;9.226;2023-04-30T05:18:39;11.8;76
79467;SHT30;68933;49.726;9.226;2023-04-30T05:20:52;11.8;76
79467;SHT30;68933;49.726;9.226;2023-04-30T05:23:05;11.8;76
79467;SHT30;68933;49.726;9.226;2023-04-30T05:25:18;12;75
79467;SHT30;68933;49.726;9.226;2023-04-30T05:27:31;12;75
79467;SHT30;68933;49.726;9.226;2023-04-30T05:29:44;12;75
79467;SHT30;68933;49.726;9.226;2023-04-30T05:31:57;12;75
79467;SHT30;68933;49.726;9.226;2023-04-30T05:34:10;12.2;72
79467;SHT30;68933;49.726;9.226;2023-04-30T05:36:24;12.2;72
79467;SHT30;68933;49.726;9.226;2023-04-30T05:38:36;12.2;72
79467;SHT30;68933;49.726;9.226;2023-04-30T05:40:49;12.3;69
79467;SHT30;68933;49.726;9.226;2023-04-30T05:43:02;12.3;69
79467;SHT30;68933;49.726;9.226;2023-04-30T05:45:15;12.4;69
79467;SHT30;68933;49.726;9.226;2023-04-30T05:47:28;12.4;69
79467;SHT30;68933;49.726;9.226;2023-04-30T05:49:41;12.5;68
79467;SHT30;68933;49.726;9.226;2023-04-30T05:51:54;12.5;68
79467;SHT30;68933;49.726;9.226;2023-04-30T05:54:07;12.5;68
79467;SHT30;68933;49.726;9.226;2023-04-30T05:56:20;12.7;67
79467;SHT30;68933;49.726;9.226;2023-04-30T05:58:33;12.7;67
79467;SHT30;68933;49.726;9.226;2023-04-30T06:00:47;12.7;67
79467;SHT30;68933;49.726;9.226;2023-04-30T06:02:59;12.7;67
79467;SHT30;68933;49.726;9.226;2023-04-30T06:05:12;12.9;67
79467;SHT30;68933;49.726;9.226;2023-04-30T06:07:25;12.9;67
79467;SHT30;68933;49.726;9.226;2023-04-30T06:09:38;12.9;67
79467;SHT30;68933;49.726;9.226;2023-04-30T06:11:51;13;65
79467;SHT30;68933;49.726;9.226;2023-04-30T06:14:04;13;65
79467;SHT30;68933;49.726;9.226;2023-04-30T06:16:17;13;65
79467;SHT30;68933;49.726;9.226;2023-04-30T06:18:30;13;65
79467;SHT30;68933;49.726;9.226;2023-04-30T06:20:43;13;64
79467;SHT30;68933;49.726;9.226;2023-04-30T06:22:56;13;64
79467;SHT30;68933;49.726;9.226;2023-04-30T06:25:09;13.1;64
79467;SHT30;68933;49.726;9.226;2023-04-30T06:27:23;13.1;64
79467;SHT30;68933;49.726;9.226;2023-04-30T06:29:36;13.1;64
79467;SHT30;68933;49.726;9.226;2023-04-30T06:31:48;13.2;64
79467;SHT30;68933;49.726;9.226;2023-04-30T06:34:01;13.2;64
79467;SHT30;68933;49.726;9.226;2023-04-30T06:36:15;13.3;63
79467;SHT30;68933;49.726;9.226;2023-04-30T06:38:27;13.3;63
79467;SHT30;68933;49.726;9.226;2023-04-30T06:40:40;13.6;63
79467;SHT30;68933;49.726;9.226;2023-04-30T06:42:53;13.6;63
79467;SHT30;68933;49.726;9.226;2023-04-30T06:45:07;13.6;63
79467;SHT30;68933;49.726;9.226;2023-04-30T06:47:19;13.6;63
79467;SHT30;68933;49.726;9.226;2023-04-30T06:49:32;13.6;61
79467;SHT30;68933;49.726;9.226;2023-04-30T06:51:45;13.6;61
79467;SHT30;68933;49.726;9.226;2023-04-30T06:53:58;13.6;61
79467;SHT30;68933;49.726;9.226;2023-04-30T06:56:11;13.6;61
79467;SHT30;68933;49.726;9.226;2023-04-30T06:58:24;13.6;61
79467;SHT30;68933;49.726;9.226;2023-04-30T07:00:37;13.7;61
79467;SHT30;68933;49.726;9.226;2023-04-30T07:02:51;13.7;61
79467;SHT30;68933;49.726;9.226;2023-04-30T07:05:03;13.8;60
79467;SHT30;68933;49.726;9.226;2023-04-30T07:07:16;13.8;60
79467;SHT30;68933;49.726;9.226;2023-04-30T07:09:29;13.9;61
79467;SHT30;68933;49.726;9.226;2023-04-30T07:11:42;13.9;61
79467;SHT30;68933;49.726;9.226;2023-04-30T07:13:55;14;60
79467;SHT30;68933;49.726;9.226;2023-04-30T07:16:08;14;60
79467;SHT30;68933;49.726;9.226;2023-04-30T07:18:21;14.1;60
79467;SHT30;68933;49.726;9.226;2023-04-30T07:20:34;14.1;60
79467;SHT30;68933;49.726;9.226;2023-04-30T07:22:47;14.1;60
79467;SHT30;68933;49.726;9.226;2023-04-30T07:25:00;14.2;59
79467;SHT30;68933;49.726;9.226;2023-04-30T07:27:13;14.2;59
79467;SHT30;68933;49.726;9.226;2023-04-30T07:29:26;14.4;58
79467;SHT30;68933;49.726;9.226;2023-04-30T07:31:39;14.4;58
79467;SHT30;68933;49.726;9.226;2023-04-30T07:33:52;14.4;58
79467;SHT30;68933;49.726;9.226;2023-04-30T07:36:05;14.6;58
79467;SHT30;68933;49.726;9.226;2023-04-30T07:38:18;14.6;58
79467;SHT30;68933;49.726;9.226;2023-04-30T07:40:31;14.7;57
79467;SHT30;68933;49.726;9.226;2023-04-30T07:42:44;14.7;57
79467;SHT30;68933;49.726;9.226;2023-04-30T07:44:57;14.9;56
79467;SHT30;68933;49.726;9.226;2023-04-30T07:47:10;14.9;56
79467;SHT30;68933;49.726;9.226;2023-04-30T07:49:23;14.9;56
79467;SHT30;68933;49.726;9.226;2023-04-30T07:51:36;15.1;56
79467;SHT30;68933;49.726;9.226;2023-04-30T07:53:49;15.1;56
79467;SHT30;68933;49.726;9.226;2023-04-30T07:56:03;15.1;56
79467;SHT30;68933;49.726;9.226;2023-04-30T07:58:16;15.4;56
79467;SHT30;68933;49.726;9.226;2023-04-30T08:00:28;15.4;56
79467;SHT30;68933;49.726;9.226;2023-04-30T08:02:41;15.6;54
79467;SHT30;68933;49.726;9.226;2023-04-30T08:04:54;15.6;54
79467;SHT30;68933;49.726;9.226;2023-04-30T08:07:07;15.8;54
79467;SHT30;68933;49.726;9.226;2023-04-30T08:09:20;15.8;54
79467;SHT30;68933;49.726;9.226;2023-04-30T08:11:33;15.8;54
79467;SHT30;68933;49.726;9.226;2023-04-30T08:13:46;16;53
79467;SHT30;68933;49.726;9.226;2023-04-30T08:15:59;16;53
79467;SHT30;68933;49.726;9.226;2023-04-30T08:18:12;16.3;52
79467;SHT30;68933;49.726;9.226;2023-04-30T08:20:25;16.3;52
79467;SHT30;68933;49.726;9.226;2023-04-30T08:22:38;16.3;52
79467;SHT30;68933;49.726;9.226;2023-04-30T08:24:51;16.5;52
79467;SHT30;68933;49.726;9.226;2023-04-30T08:27:04;16.5;52
79467;SHT30;68933;49.726;9.226;2023-04-30T08:29:17;16.6;52
79467;SHT30;68933;49.726;9.226;2023-04-30T08:31:30;16.6;52
79467;SHT30;68933;49.726;9.226;2023-04-30T08:33:44;16.8;50
79467;SHT30;68933;49.726;9.226;2023-04-30T08:35:56;16.8;50
79467;SHT30;68933;49.726;9.226;2023-04-30T08:38:09;16.8;50
79467;SHT30;68933;49.726;9.226;2023-04-30T08:40:22;17.1;49
79467;SHT30;68933;49.726;9.226;2023-04-30T08:42:36;17.1;49
79467;SHT30;68933;49.726;9.226;2023-04-30T08:44:48;17.2;49
79467;SHT30;68933;49.726;9.226;2023-04-30T08:47:01;17.2;49
79467;SHT30;68933;49.726;9.226;2023-04-30T08:49:14;17.2;48
79467;SHT30;68933;49.726;9.226;2023-04-30T08:51:28;17.2;48
79467;SHT30;68933;49.726;9.226;2023-04-30T08:53:41;17.2;48
79467;SHT30;68933;49.726;9.226;2023-04-30T08:55:53;17;49
79467;SHT30;68933;49.726;9.226;2023-04-30T08:58:06;17;49
79467;SHT30;68933;49.726;9.226;2023-04-30T09:00:19;16.9;49
79467;SHT30;68933;49.726;9.226;2023-04-30T09:02:32;16.9;49
79467;SHT30;68933;49.726;9.226;2023-04-30T09:04:46;16.9;49
79467;SHT30;68933;49.726;9.226;2023-04-30T09:06:59;16.9;49
79467;SHT30;68933;49.726;9.226;2023-04-30T09:09:12;16.9;49
79467;SHT30;68933;49.726;9.226;2023-04-30T09:11:25;16.9;49
79467;SHT30;68933;49.726;9.226;2023-04-30T09:13:39;16.9;49
79467;SHT30;68933;49.726;9.226;2023-04-30T09:15:50;17;49
79467;SHT30;68933;49.726;9.226;2023-04-30T09:18:05;17;49
79467;SHT30;68933;49.726;9.226;2023-04-30T09:20:16;17.2;48
79467;SHT30;68933;49.726;9.226;2023-04-30T09:22:29;17.2;48
79467;SHT30;68933;49.726;9.226;2023-04-30T09:24:44;17.2;46
79467;SHT30;68933;49.726;9.226;2023-04-30T09:26:55;17.2;46
79467;SHT30;68933;49.726;9.226;2023-04-30T09:29:08;17.2;46
79467;SHT30;68933;49.726;9.226;2023-04-30T09:31:21;17.2;46
79467;SHT30;68933;49.726;9.226;2023-04-30T09:33:44;17.2;46
79467;SHT30;68933;49.726;9.226;2023-04-30T09:35:47;17.3;46
79467;SHT30;68933;49.726;9.226;2023-04-30T09:38:01;17.3;46
79467;SHT30;68933;49.726;9.226;2023-04-30T09:40:13;17.6;46
79467;SHT30;68933;49.726;9.226;2023-04-30T09:42:26;17.6;46
79467;SHT30;68933;49.726;9.226;2023-04-30T09:44:39;17.6;46
79467;SHT30;68933;49.726;9.226;2023-04-30T09:46:52;17.9;45
79467;SHT30;68933;49.726;9.226;2023-04-30T09:49:05;17.9;45
79467;SHT30;68933;49.726;9.226;2023-04-30T09:51:18;18.1;45
79467;SHT30;68933;49.726;9.226;2023-04-30T09:53:31;18.1;45
79467;SHT30;68933;49.726;9.226;2023-04-30T09:55:45;18.6;44
79467;SHT30;68933;49.726;9.226;2023-04-30T09:57:57;18.6;44
79467;SHT30;68933;49.726;9.226;2023-04-30T10:00:11;18.8;44
79467;SHT30;68933;49.726;9.226;2023-04-30T10:02:23;18.8;44
79467;SHT30;68933;49.726;9.226;2023-04-30T10:04:37;19.1;42
79467;SHT30;68933;49.726;9.226;2023-04-30T10:06:50;19.1;42
79467;SHT30;68933;49.726;9.226;2023-04-30T10:09:02;19.1;42
79467;SHT30;68933;49.726;9.226;2023-04-30T10:11:17;19.3;42
79467;SHT30;68933;49.726;9.226;2023-04-30T10:13:30;19.3;42
79467;SHT30;68933;49.726;9.226;2023-04-30T10:15:42;19.4;41
79467;SHT30;68933;49.726;9.226;2023-04-30T10:17:56;19.4;41
79467;SHT30;68933;49.726;9.226;2023-04-30T10:20:08;19.6;41
79467;SHT30;68933;49.726;9.226;2023-04-30T10:22:21;19.6;41
79467;SHT30;68933;49.726;9.226;2023-04-30T10:24:33;19.8;41
79467;SHT30;68933;49.726;9.226;2023-04-30T10:26:47;19.8;41
79467;SHT30;68933;49.726;9.226;2023-04-30T10:28:59;20.3;40
79467;SHT30;68933;49.726;9.226;2023-04-30T10:31:12;20.3;40
79467;SHT30;68933;49.726;9.226;2023-04-30T10:33:28;20.3;40
79467;SHT30;68933;49.726;9.226;2023-04-30T10:35:40;20.7;38
79467;SHT30;68933;49.726;9.226;2023-04-30T10:37:52;20.7;38
79467;SHT30;68933;49.726;9.226;2023-04-30T10:40:05;20.9;38
79467;SHT30;68933;49.726;9.226;2023-04-30T10:42:17;20.9;38
79467;SHT30;68933;49.726;9.226;2023-04-30T10:44:31;21.1;37
79467;SHT30;68933;49.726;9.226;2023-04-30T10:46:44;21.1;37
79467;SHT30;68933;49.726;9.226;2023-04-30T10:48:56;21.1;37
79467;SHT30;68933;49.726;9.226;2023-04-30T10:51:09;21.2;37
79467;SHT30;68933;49.726;9.226;2023-04-30T10:53:22;21.2;37
79467;SHT30;68933;49.726;9.226;2023-04-30T10:55:37;21;37
79467;SHT30;68933;49.726;9.226;2023-04-30T10:57:48;21;37
79467;SHT30;68933;49.726;9.226;2023-04-30T11:00:17;21.1;37
79467;SHT30;68933;49.726;9.226;2023-04-30T11:02:15;21.1;37
79467;SHT30;68933;49.726;9.226;2023-04-30T11:04:27;21.1;37
79467;SHT30;68933;49.726;9.226;2023-04-30T11:06:48;21;37
79467;SHT30;68933;49.726;9.226;2023-04-30T11:08:53;21;37
79467;SHT30;68933;49.726;9.226;2023-04-30T11:11:07;21.2;37
79467;SHT30;68933;49.726;9.226;2023-04-30T11:13:19;21.2;37
79467;SHT30;68933;49.726;9.226;2023-04-30T11:15:33;21.3;37
79467;SHT30;68933;49.726;9.226;2023-04-30T11:17:46;21.3;37
79467;SHT30;68933;49.726;9.226;2023-04-30T11:19:59;21.3;37
79467;SHT30;68933;49.726;9.226;2023-04-30T11:22:15;21.8;37
79467;SHT30;68933;49.726;9.226;2023-04-30T11:24:39;21.8;37
79467;SHT30;68933;49.726;9.226;2023-04-30T11:27:08;22.1;36
79467;SHT30;68933;49.726;9.226;2023-04-30T11:28:50;22.1;36
79467;SHT30;68933;49.726;9.226;2023-04-30T11:31:03;22.2;36
79467;SHT30;68933;49.726;9.226;2023-04-30T11:33:16;22.2;36
79467;SHT30;68933;49.726;9.226;2023-04-30T11:35:29;22.1;34
79467;SHT30;68933;49.726;9.226;2023-04-30T11:37:44;22.1;34
79467;SHT30;68933;49.726;9.226;2023-04-30T11:39:56;22.1;34
79467;SHT30;68933;49.726;9.226;2023-04-30T11:42:08;22.3;34
79467;SHT30;68933;49.726;9.226;2023-04-30T11:44:21;22.3;34
79467;SHT30;68933;49.726;9.226;2023-04-30T11:46:34;22.5;34
79467;SHT30;68933;49.726;9.226;2023-04-30T11:48:47;22.5;34
79467;SHT30;68933;49.726;9.226;2023-04-30T11:51:02;22.9;34
79467;SHT30;68933;49.726;9.226;2023-04-30T11:53:13;22.9;34
79467;SHT30;68933;49.726;9.226;2023-04-30T11:55:26;23.3;33
79467;SHT30;68933;49.726;9.226;2023-04-30T11:57:40;23.3;33
79467;SHT30;68933;49.726;9.226;2023-04-30T11:59:52;23.3;33
79467;SHT30;68933;49.726;9.226;2023-04-30T12:02:05;23.3;33
79467;SHT30;68933;49.726;9.226;2023-04-30T12:04:18;23.3;33
79467;SHT30;68933;49.726;9.226;2023-04-30T12:06:31;23.4;33
79467;SHT30;68933;49.726;9.226;2023-04-30T12:08:44;23.4;33
79467;SHT30;68933;49.726;9.226;2023-04-30T12:10:57;23.6;33
79467;SHT30;68933;49.726;9.226;2023-04-30T12:13:12;23.6;33
79467;SHT30;68933;49.726;9.226;2023-04-30T12:15:24;23.6;33
79467;SHT30;68933;49.726;9.226;2023-04-30T12:17:36;23.6;33
79467;SHT30;68933;49.726;9.226;2023-04-30T12:19:49;23.3;33
79467;SHT30;68933;49.726;9.226;2023-04-30T12:22:02;23.3;33
79467;SHT30;68933;49.726;9.226;2023-04-30T12:24:16;23;32
79467;SHT30;68933;49.726;9.226;2023-04-30T12:26:37;23;32
79467;SHT30;68933;49.726;9.226;2023-04-30T12:28:41;22.6;32
79467;SHT30;68933;49.726;9.226;2023-04-30T12:30:54;22.6;32
79467;SHT30;68933;49.726;9.226;2023-04-30T12:33:08;22.6;32
79467;SHT30;68933;49.726;9.226;2023-04-30T12:35:21;22.6;32
79467;SHT30;68933;49.726;9.226;2023-04-30T12:37:33;22.6;32
79467;SHT30;68933;49.726;9.226;2023-04-30T12:39:46;22.8;33
79467;SHT30;68933;49.726;9.226;2023-04-30T12:41:59;22.8;33
79467;SHT30;68933;49.726;9.226;2023-04-30T12:44:15;22.8;33
79467;SHT30;68933;49.726;9.226;2023-04-30T12:46:25;23.1;30
79467;SHT30;68933;49.726;9.226;2023-04-30T12:48:42;23.1;30
79467;SHT30;68933;49.726;9.226;2023-04-30T12:51:03;23;32
79467;SHT30;68933;49.726;9.226;2023-04-30T12:53:30;23;32
79467;SHT30;68933;49.726;9.226;2023-04-30T12:55:42;23.1;32
79467;SHT30;68933;49.726;9.226;2023-04-30T12:58:03;23.1;32
79467;SHT30;68933;49.726;9.226;2023-04-30T13:00:08;23.1;32
79467;SHT30;68933;49.726;9.226;2023-04-30T13:02:21;23.2;30
79467;SHT30;68933;49.726;9.226;2023-04-30T13:04:34;23.2;30
79467;SHT30;68933;49.726;9.226;2023-04-30T13:06:47;23.5;30
79467;SHT30;68933;49.726;9.226;2023-04-30T13:09:00;23.5;30
79467;SHT30;68933;49.726;9.226;2023-04-30T13:11:13;23.5;30
79467;SHT30;68933;49.726;9.226;2023-04-30T13:13:26;23.6;32
79467;SHT30;68933;49.726;9.226;2023-04-30T13:15:39;23.6;32
79467;SHT30;68933;49.726;9.226;2023-04-30T13:17:52;23.7;30
79467;SHT30;68933;49.726;9.226;2023-04-30T13:20:05;23.7;30
79467;SHT30;68933;49.726;9.226;2023-04-30T13:22:18;24.1;30
79467;SHT30;68933;49.726;9.226;2023-04-30T13:24:31;24.1;30
79467;SHT30;68933;49.726;9.226;2023-04-30T13:26:44;24.1;30
79467;SHT30;68933;49.726;9.226;2023-04-30T13:28:57;24.4;30
79467;SHT30;68933;49.726;9.226;2023-04-30T13:31:10;24.4;30
79467;SHT30;68933;49.726;9.226;2023-04-30T13:33:23;24.8;30
79467;SHT30;68933;49.726;9.226;2023-04-30T13:35:36;24.8;30
79467;SHT30;68933;49.726;9.226;2023-04-30T13:37:49;24.9;30
79467;SHT30;68933;49.726;9.226;2023-04-30T13:40:02;24.9;30
79467;SHT30;68933;49.726;9.226;2023-04-30T13:42:15;24.9;30
79467;SHT30;68933;49.726;9.226;2023-04-30T13:44:28;24.8;29
79467;SHT30;68933;49.726;9.226;2023-04-30T13:46:41;24.8;29
79467;SHT30;68933;49.726;9.226;2023-04-30T13:48:54;24.7;29
79467;SHT30;68933;49.726;9.226;2023-04-30T13:51:07;24.7;29
79467;SHT30;68933;49.726;9.226;2023-04-30T13:53:20;24.6;29
79467;SHT30;68933;49.726;9.226;2023-04-30T13:55:33;24.6;29
79467;SHT30;68933;49.726;9.226;2023-04-30T13:57:46;24.6;29
79467;SHT30;68933;49.726;9.226;2023-04-30T13:59:59;24.5;30
79467;SHT30;68933;49.726;9.226;2023-04-30T14:02:12;24.5;30
79467;SHT30;68933;49.726;9.226;2023-04-30T14:04:25;24.8;29
79467;SHT30;68933;49.726;9.226;2023-04-30T14:06:38;24.8;29
79467;SHT30;68933;49.726;9.226;2023-04-30T14:08:51;24.9;30
79467;SHT30;68933;49.726;9.226;2023-04-30T14:11:04;24.9;30
79467;SHT30;68933;49.726;9.226;2023-04-30T14:13:17;24.9;30
79467;SHT30;68933;49.726;9.226;2023-04-30T14:15:30;24.9;28
79467;SHT30;68933;49.726;9.226;2023-04-30T14:17:43;24.9;28
79467;SHT30;68933;49.726;9.226;2023-04-30T14:19:56;25;29
79467;SHT30;68933;49.726;9.226;2023-04-30T14:22:09;25;29
79467;SHT30;68933;49.726;9.226;2023-04-30T14:24:22;25.2;29
79467;SHT30;68933;49.726;9.226;2023-04-30T14:26:35;25.2;29
79467;SHT30;68933;49.726;9.226;2023-04-30T14:28:48;25.2;29
79467;SHT30;68933;49.726;9.226;2023-04-30T14:31:01;25.5;29
79467;SHT30;68933;49.726;9.226;2023-04-30T14:33:14;25.5;29
79467;SHT30;68933;49.726;9.226;2023-04-30T14:35:27;25.4;28
79467;SHT30;68933;49.726;9.226;2023-04-30T14:37:40;25.4;28
79467;SHT30;68933;49.726;9.226;2023-04-30T14:39:53;25.2;28
79467;SHT30;68933;49.726;9.226;2023-04-30T14:42:06;25.2;28
79467;SHT30;68933;49.726;9.226;2023-04-30T14:44:19;24.9;28
79467;SHT30;68933;49.726;9.226;2023-04-30T14:46:32;24.9;28
79467;SHT30;68933;49.726;9.226;2023-04-30T14:48:45;24.9;28
79467;SHT30;68933;49.726;9.226;2023-04-30T14:50:58;24.9;28
79467;SHT30;68933;49.726;9.226;2023-04-30T14:53:11;24.9;28
79467;SHT30;68933;49.726;9.226;2023-04-30T14:55:24;24.8;28
79467;SHT30;68933;49.726;9.226;2023-04-30T14:57:37;24.8;28
79467;SHT30;68933;49.726;9.226;2023-04-30T14:59:50;25.2;28
79467;SHT30;68933;49.726;9.226;2023-04-30T15:02:03;25.2;28